Time;durP1;ratioP1;P1;durP2;ratioP2;P2;SDS_P1;SDS_P2;PMS_P1;PMS_P2;Temp;Humidity;BMP_temperature;BMP_pressure;BME280_temperature;BME280_humidity;BME280_pressure;Samples;Min_cycle;Max_cycle;Signal;HPM_P1;HPM_P2
2022/11/23 00:01:15;;;;;;;5.10;3.70;;;20.40;65.80;;;;;;4999632;28;20840;-72
2022/11/23 00:03:44;;;;;;;5.13;3.50;;;20.40;65.90;;;;;;4996311;28;20553;-74
2022/11/23 00:06:12;;;;;;;3.93;3.53;;;20.40;65.80;;;;;;4998046;28;20819;-73
2022/11/23 00:08:41;;;;;;;3.20;2.90;;;20.40;65.80;;;;;;5002076;28;20470;-73
2022/11/23 00:11:09;;;;;;;4.17;3.77;;;20.40;65.80;;;;;;5002496;28;20471;-73
2022/11/23 00:13:39;;;;;;;4.07;3.50;;;20.40;65.80;;;;;;4998315;28;20460;-74
2022/11/23 00:16:07;;;;;;;3.50;3.20;;;20.40;65.80;;;;;;4996655;28;20923;-74
2022/11/23 00:18:37;;;;;;;3.53;3.23;;;20.40;65.80;;;;;;5003577;28;20474;-73
2022/11/23 00:21:09;;;;;;;3.57;3.23;;;20.30;65.70;;;;;;5000759;28;20557;-74
2022/11/23 00:23:37;;;;;;;4.00;3.67;;;20.30;65.70;;;;;;5001882;28;20475;-74
2022/11/23 00:26:06;;;;;;;4.20;3.70;;;20.30;65.70;;;;;;4998691;28;20467;-73
2022/11/23 00:28:37;;;;;;;3.60;3.27;;;20.30;65.70;;;;;;4997211;28;20971;-72
2022/11/23 00:31:06;;;;;;;3.77;3.47;;;20.30;65.70;;;;;;5001807;28;20535;-73
2022/11/23 00:33:34;;;;;;;3.20;2.90;;;20.30;65.80;;;;;;5002195;28;20537;-72
2022/11/23 00:36:05;;;;;;;3.30;3.10;;;20.30;65.80;;;;;;4995325;28;20454;-72
2022/11/23 00:38:34;;;;;;;3.33;3.07;;;20.30;65.80;;;;;;4997555;28;20493;-73
2022/11/23 00:41:04;;;;;;;4.13;3.70;;;20.30;65.90;;;;;;5008463;28;20470;-72
2022/11/23 00:43:33;;;;;;;3.63;2.93;;;20.30;65.80;;;;;;4996729;28;20469;-73
2022/11/23 00:46:05;;;;;;;3.20;2.83;;;20.30;65.70;;;;;;5014237;28;20449;-73
2022/11/23 00:48:34;;;;;;;3.57;3.37;;;20.30;65.70;;;;;;4996636;28;20508;-72
2022/11/23 00:51:06;;;;;;;4.00;3.40;;;20.30;65.70;;;;;;4996144;28;20813;-73
2022/11/23 00:53:35;;;;;;;4.07;2.90;;;20.30;65.60;;;;;;5013673;28;20480;-72
2022/11/23 00:56:04;;;;;;;3.30;3.00;;;20.30;65.70;;;;;;5013936;28;20542;-72
2022/11/23 00:58:32;;;;;;;5.93;3.83;;;20.30;65.70;;;;;;5013596;28;20474;-72
2022/11/23 01:01:03;;;;;;;4.43;2.97;;;20.30;65.70;;;;;;5005554;28;20919;-72
2022/11/23 01:03:34;;;;;;;2.90;2.70;;;20.30;65.70;;;;;;4996259;28;20517;-72
2022/11/23 01:06:06;;;;;;;3.50;2.80;;;20.30;65.60;;;;;;5013919;28;20485;-72
2022/11/23 01:08:35;;;;;;;3.90;3.20;;;20.30;65.50;;;;;;5013677;28;20465;-72
2022/11/23 01:11:05;;;;;;;3.07;2.87;;;20.30;65.50;;;;;;5014067;28;20427;-72
2022/11/23 01:13:36;;;;;;;3.47;3.20;;;20.30;65.60;;;;;;4995715;28;20493;-72
2022/11/23 01:16:07;;;;;;;3.90;2.87;;;20.30;65.60;;;;;;4995847;28;20970;-72
2022/11/23 01:18:36;;;;;;;2.73;2.53;;;20.30;65.60;;;;;;4995242;28;20504;-73
2022/11/23 01:21:06;;;;;;;3.80;3.50;;;20.30;65.60;;;;;;5005982;28;20935;-73
2022/11/23 01:23:34;;;;;;;2.97;2.70;;;20.30;65.60;;;;;;5007522;28;20487;-74
2022/11/23 01:26:07;;;;;;;2.67;2.47;;;20.30;65.50;;;;;;5011340;28;20454;-73
2022/11/23 01:28:36;;;;;;;2.93;2.70;;;20.30;65.50;;;;;;4996251;28;20469;-73
2022/11/23 01:31:06;;;;;;;2.63;2.40;;;20.30;65.40;;;;;;4995325;28;20861;-72
2022/11/23 01:33:34;;;;;;;2.60;2.40;;;20.30;65.50;;;;;;4991950;28;20551;-72
2022/11/23 01:36:10;;;;;;;2.73;2.50;;;20.30;65.50;;;;;;4995708;28;20447;-72
2022/11/23 01:38:39;;;;;;;3.33;3.03;;;20.30;65.40;;;;;;4991652;28;20470;-72
2022/11/23 01:41:08;;;;;;;3.90;2.90;;;20.30;65.30;;;;;;5000472;28;20461;-72
2022/11/23 01:43:36;;;;;;;2.60;2.40;;;20.30;65.30;;;;;;4993098;28;20467;-72
2022/11/23 01:46:05;;;;;;;2.30;2.10;;;20.30;65.30;;;;;;4995240;28;20450;-72
2022/11/23 01:48:37;;;;;;;2.23;2.13;;;20.30;65.40;;;;;;5013513;28;20466;-72
2022/11/23 01:51:10;;;;;;;2.97;2.77;;;20.30;65.30;;;;;;4995667;28;20468;-73
2022/11/23 01:53:41;;;;;;;2.23;2.03;;;20.30;65.40;;;;;;5012745;28;20453;-72
2022/11/23 01:56:14;;;;;;;2.43;2.23;;;20.30;65.30;;;;;;5012715;28;20506;-72
2022/11/23 01:58:46;;;;;;;2.63;2.43;;;20.30;65.30;;;;;;5013503;28;20502;-72
2022/11/23 02:01:14;;;;;;;2.40;2.17;;;20.30;65.30;;;;;;5012262;28;20443;-72
2022/11/23 02:03:43;;;;;;;2.27;2.07;;;20.30;65.30;;;;;;5013144;28;20439;-72
2022/11/23 02:06:15;;;;;;;2.57;2.37;;;20.30;65.30;;;;;;5012396;28;20545;-73
2022/11/23 02:08:45;;;;;;;2.50;2.30;;;20.30;65.30;;;;;;5012356;28;20457;-73
2022/11/23 02:11:15;;;;;;;2.30;2.10;;;20.30;65.30;;;;;;4995016;28;20537;-73
2022/11/23 02:13:45;;;;;;;2.57;2.37;;;20.30;65.30;;;;;;4994816;28;20456;-72
2022/11/23 02:16:14;;;;;;;3.40;2.30;;;20.30;65.30;;;;;;5010157;28;20483;-71
2022/11/23 02:18:46;;;;;;;2.40;2.20;;;20.30;65.30;;;;;;5002554;28;20446;-71
2022/11/23 02:21:15;;;;;;;2.30;2.10;;;20.30;65.30;;;;;;4994514;28;20453;-71
2022/11/23 02:23:55;;;;;;;2.60;2.40;;;20.30;65.40;;;;;;4994788;28;20497;-70
2022/11/23 02:26:27;;;;;;;2.40;2.20;;;20.30;65.50;;;;;;5012977;28;20507;-71
2022/11/23 02:29:00;;;;;;;3.13;2.37;;;20.30;65.40;;;;;;5012238;28;20930;-71
2022/11/23 02:31:31;;;;;;;2.10;2.00;;;20.30;65.50;;;;;;4994389;28;20509;-71
2022/11/23 02:33:59;;;;;;;2.13;1.90;;;20.30;65.50;;;;;;4995048;28;20442;-71
2022/11/23 02:36:37;;;;;;;2.73;2.53;;;20.30;65.50;;;;;;4994498;28;20820;-71
2022/11/23 02:39:09;;;;;;;2.30;2.10;;;20.30;65.50;;;;;;5007246;28;20566;-71
2022/11/23 02:41:42;;;;;;;2.33;2.10;;;20.30;65.50;;;;;;5012309;28;20457;-73
2022/11/23 02:44:21;;;;;;;2.43;2.23;;;20.30;65.50;;;;;;5012032;28;20519;-72
2022/11/23 02:46:50;;;;;;;2.50;2.30;;;20.30;65.50;;;;;;5005621;28;21128;-72
2022/11/23 02:49:19;;;;;;;2.93;2.37;;;20.30;65.50;;;;;;5012440;28;20981;-72
2022/11/23 02:51:47;;;;;;;1.93;1.83;;;20.30;65.50;;;;;;5012492;28;20907;-72
2022/11/23 02:54:15;;;;;;;2.50;2.30;;;20.30;65.40;;;;;;4994104;28;20543;-71
2022/11/23 02:56:45;;;;;;;2.07;1.87;;;20.30;65.40;;;;;;5010264;28;20552;-72
2022/11/23 02:59:13;;;;;;;2.40;1.90;;;20.30;65.40;;;;;;4994016;28;20457;-72
2022/11/23 03:01:46;;;;;;;2.60;2.27;;;20.30;65.40;;;;;;4991097;28;20466;-71
2022/11/23 03:04:14;;;;;;;1.93;1.83;;;20.30;65.40;;;;;;5009414;28;20546;-72
2022/11/23 03:06:42;;;;;;;2.60;2.37;;;20.30;65.40;;;;;;5012070;28;20436;-72
2022/11/23 03:09:11;;;;;;;1.80;1.70;;;20.30;65.30;;;;;;4993817;28;21004;-72
2022/11/23 03:11:39;;;;;;;2.70;2.50;;;20.30;65.40;;;;;;5010416;28;20490;-72
2022/11/23 03:14:09;;;;;;;2.17;1.83;;;20.30;65.30;;;;;;5012713;28;20450;-72
2022/11/23 03:16:46;;;;;;;3.43;1.50;;;20.30;65.40;;;;;;5011492;28;20807;-71
2022/11/23 03:19:17;;;;;;;1.83;1.73;;;20.30;65.30;;;;;;5012061;28;20478;-72
2022/11/23 03:21:45;;;;;;;2.50;2.20;;;20.30;65.30;;;;;;5012169;28;20446;-72
2022/11/23 03:24:13;;;;;;;2.43;1.90;;;20.30;65.30;;;;;;5011668;28;20479;-73
2022/11/23 03:26:41;;;;;;;2.67;2.47;;;20.30;65.20;;;;;;4992366;28;20489;-73
2022/11/23 03:29:14;;;;;;;2.13;1.97;;;20.30;65.30;;;;;;4994223;28;20462;-72
2022/11/23 03:31:43;;;;;;;1.97;1.87;;;20.30;65.20;;;;;;4990438;28;20467;-73
2022/11/23 03:34:14;;;;;;;2.90;1.97;;;20.30;65.20;;;;;;4997024;28;20810;-72
2022/11/23 03:36:44;;;;;;;1.87;1.77;;;20.30;65.20;;;;;;4998126;28;20505;-72
2022/11/23 03:39:12;;;;;;;2.80;2.50;;;20.30;65.20;;;;;;4996914;28;20462;-70
2022/11/23 03:41:59;;;;;;;1.87;1.77;;;20.30;65.20;;;;;;5010154;28;20505;-72
2022/11/23 03:44:34;;;;;;;2.03;1.93;;;20.30;65.20;;;;;;4997578;28;20957;-72
2022/11/23 03:47:03;;;;;;;1.47;1.27;;;20.30;65.20;;;;;;4997330;28;20454;-73
2022/11/23 03:49:33;;;;;;;2.13;1.93;;;20.30;65.10;;;;;;4997832;28;20497;-71
2022/11/23 03:52:04;;;;;;;1.97;1.87;;;20.30;65.10;;;;;;4997902;28;20500;-72
2022/11/23 03:54:32;;;;;;;1.27;1.17;;;20.30;65.10;;;;;;4987847;28;20834;-72
2022/11/23 03:57:00;;;;;;;1.80;1.53;;;20.30;65.10;;;;;;5008954;28;20481;-71
2022/11/23 03:59:29;;;;;;;1.53;1.43;;;20.30;65.10;;;;;;4996589;28;20960;-72
2022/11/23 04:01:59;;;;;;;1.90;1.70;;;20.30;65.00;;;;;;4996544;28;20509;-72
2022/11/23 04:04:31;;;;;;;1.90;1.73;;;20.30;65.00;;;;;;4996710;28;20980;-72
2022/11/23 04:07:07;;;;;;;1.93;1.83;;;20.30;65.00;;;;;;4994871;28;20541;-72
2022/11/23 04:09:41;;;;;;;1.97;1.87;;;20.30;65.10;;;;;;4996533;28;20468;-72
2022/11/23 04:12:32;;;;;;;1.83;1.73;;;20.30;65.00;;;;;;4996924;28;20465;-72
2022/11/23 04:15:00;;;;;;;1.90;1.70;;;20.30;65.00;;;;;;5014336;28;20465;-72
2022/11/23 04:17:30;;;;;;;2.07;1.63;;;20.30;65.00;;;;;;4996896;28;20465;-72
2022/11/23 04:19:58;;;;;;;1.30;1.30;;;20.30;65.00;;;;;;4996545;28;20519;-72
2022/11/23 04:22:26;;;;;;;1.80;1.70;;;20.30;65.00;;;;;;4996489;28;20455;-72
2022/11/23 04:24:55;;;;;;;1.80;1.53;;;20.30;65.00;;;;;;4996980;28;20460;-72
2022/11/23 04:27:23;;;;;;;1.60;1.50;;;20.30;65.00;;;;;;5014368;28;20471;-72
2022/11/23 04:29:51;;;;;;;1.87;1.40;;;20.20;65.00;;;;;;4995544;28;20466;-72
2022/11/23 04:32:20;;;;;;;2.20;1.80;;;20.20;65.10;;;;;;4991589;28;20462;-72
2022/11/23 04:34:49;;;;;;;1.93;1.50;;;20.30;64.90;;;;;;4995123;28;20562;-71
2022/11/23 04:37:18;;;;;;;1.67;1.57;;;20.20;65.00;;;;;;4995379;28;20470;-70
2022/11/23 04:39:46;;;;;;;1.60;1.50;;;20.20;65.00;;;;;;4994893;28;21547;-72
2022/11/23 04:42:25;;;;;;;1.97;1.83;;;20.30;64.90;;;;;;5003344;28;20439;-72
2022/11/23 04:44:57;;;;;;;1.93;1.77;;;20.20;65.00;;;;;;4996437;28;20494;-73
2022/11/23 04:47:26;;;;;;;1.63;1.53;;;20.20;65.00;;;;;;4993556;28;20479;-71
2022/11/23 04:49:59;;;;;;;1.40;1.30;;;20.30;64.90;;;;;;4993656;28;20455;-72
2022/11/23 04:52:27;;;;;;;1.40;1.30;;;20.20;64.90;;;;;;4997086;28;20453;-72
2022/11/23 04:54:56;;;;;;;1.23;1.23;;;20.30;64.80;;;;;;4996978;28;20555;-72
2022/11/23 04:57:24;;;;;;;1.70;1.60;;;20.30;64.80;;;;;;4995936;28;20487;-72
2022/11/23 04:59:53;;;;;;;1.47;1.37;;;20.30;64.80;;;;;;4996443;28;20467;-69
2022/11/23 05:02:23;;;;;;;1.67;1.50;;;20.30;64.70;;;;;;4995504;28;20470;-73
2022/11/23 05:05:02;;;;;;;1.47;1.37;;;20.30;64.70;;;;;;4995836;28;20465;-72
2022/11/23 05:07:31;;;;;;;1.60;1.50;;;20.30;64.70;;;;;;4993644;28;20477;-72
2022/11/23 05:10:03;;;;;;;1.60;1.50;;;20.30;64.70;;;;;;5013332;28;20539;-72
2022/11/23 05:12:33;;;;;;;1.70;1.60;;;20.30;64.70;;;;;;4995715;28;20466;-73
2022/11/23 05:15:01;;;;;;;1.90;1.20;;;20.30;64.70;;;;;;4993915;28;20464;-72
2022/11/23 05:17:35;;;;;;;1.40;1.30;;;20.20;64.80;;;;;;5004430;28;20484;-72
2022/11/23 05:20:08;;;;;;;1.43;1.33;;;20.30;64.70;;;;;;5009817;28;20450;-72
2022/11/23 05:22:41;;;;;;;1.90;1.80;;;20.30;64.70;;;;;;4977512;28;20965;-71
2022/11/23 05:25:13;;;;;;;1.70;1.60;;;20.30;64.70;;;;;;4996368;28;20473;-73
2022/11/23 05:27:41;;;;;;;1.30;1.20;;;20.30;64.60;;;;;;4993224;28;20549;-72
2022/11/23 05:30:11;;;;;;;1.50;1.40;;;20.30;64.70;;;;;;4994634;28;20554;-72
2022/11/23 05:32:41;;;;;;;1.57;1.47;;;20.30;64.60;;;;;;4993477;28;20474;-72
2022/11/23 05:35:11;;;;;;;1.53;1.40;;;20.30;64.60;;;;;;4995190;28;20466;-72
2022/11/23 05:37:40;;;;;;;1.60;1.50;;;20.20;64.80;;;;;;5013060;28;21103;-72
2022/11/23 05:40:11;;;;;;;1.40;1.30;;;20.30;64.60;;;;;;4994777;28;20791;-72
2022/11/23 05:42:40;;;;;;;1.37;1.27;;;20.20;64.70;;;;;;4993032;28;20473;-75
2022/11/23 05:45:15;;;;;;;1.40;1.30;;;20.20;64.70;;;;;;5005371;28;20457;-75
2022/11/23 05:47:50;;;;;;;2.00;1.70;;;20.30;64.90;;;;;;4993916;28;20988;-74
2022/11/23 05:50:26;;;;;;;2.10;1.20;;;20.30;65.40;;;;;;4996799;28;20845;-81
2022/11/23 05:53:14;;;;;;;7.20;1.57;;;20.30;65.40;;;;;;5004008;28;20467;-81
2022/11/23 05:55:46;;;;;;;5.50;1.90;;;20.30;65.50;;;;;;4986172;28;20471;-72
2022/11/23 05:58:14;;;;;;;1.30;1.20;;;20.20;65.70;;;;;;5003044;28;20470;-81
2022/11/23 06:00:42;;;;;;;1.63;1.53;;;20.30;65.90;;;;;;4983586;28;20471;-82
2022/11/23 06:03:10;;;;;;;1.57;1.47;;;20.30;66.10;;;;;;4984657;28;21393;-82
2022/11/23 06:05:41;;;;;;;3.70;2.40;;;20.30;65.80;;;;;;4989026;28;20463;-79
2022/11/23 06:08:09;;;;;;;3.70;1.80;;;20.30;65.70;;;;;;5004978;28;20454;-77
2022/11/23 06:10:39;;;;;;;4.13;1.70;;;20.30;65.90;;;;;;4992445;28;21189;-81
2022/11/23 06:13:07;;;;;;;2.57;1.60;;;20.30;65.90;;;;;;4993140;28;20502;-83
2022/11/23 06:15:35;;;;;;;3.53;1.80;;;20.30;65.90;;;;;;4992802;28;20461;-80
2022/11/23 06:18:04;;;;;;;3.00;1.97;;;20.30;66.00;;;;;;4989976;28;20466;-74
2022/11/23 06:20:44;;;;;;;4.03;2.03;;;20.30;66.10;;;;;;4989399;28;20541;-79
2022/11/23 06:23:13;;;;;;;4.47;1.93;;;20.30;66.10;;;;;;4989940;28;20577;-79
2022/11/23 06:25:41;;;;;;;3.00;1.73;;;20.30;65.90;;;;;;4995300;28;20462;-70
2022/11/23 06:28:19;;;;;;;3.07;1.37;;;20.30;66.00;;;;;;4988530;28;20470;-74
2022/11/23 06:30:49;;;;;;;7.40;1.73;;;20.30;65.90;;;;;;4984355;28;20558;-75
2022/11/23 06:33:17;;;;;;;9.90;1.83;;;20.30;65.80;;;;;;4991291;28;20829;-79
2022/11/23 06:35:56;;;;;;;3.10;1.93;;;20.30;65.90;;;;;;4985502;28;20469;-70
2022/11/23 06:38:29;;;;;;;1.60;1.43;;;20.30;65.90;;;;;;4997923;28;20949;-69
2022/11/23 06:41:09;;;;;;;1.80;1.50;;;20.30;65.70;;;;;;4979947;28;20462;-75
2022/11/23 06:43:40;;;;;;;2.10;1.83;;;20.30;65.70;;;;;;5008830;28;20470;-76
2022/11/23 06:46:08;;;;;;;3.83;2.17;;;20.30;65.70;;;;;;4996308;28;20543;-78
2022/11/23 06:48:42;;;;;;;2.00;1.80;;;20.30;65.60;;;;;;4992466;28;20492;-78
2022/11/23 06:51:14;;;;;;;4.40;2.40;;;20.30;65.60;;;;;;5009049;28;21021;-82
2022/11/23 06:53:43;;;;;;;4.73;2.20;;;20.20;65.90;;;;;;4986374;28;20466;-79
2022/11/23 06:56:13;;;;;;;5.43;1.97;;;20.20;66.30;;;;;;4989663;28;20458;-80
2022/11/23 06:58:42;;;;;;;2.47;1.80;;;20.20;66.30;;;;;;4977060;28;20464;-80
2022/11/23 07:01:16;;;;;;;2.33;1.70;;;20.20;66.30;;;;;;4996488;28;20462;-80
2022/11/23 07:03:52;;;;;;;3.80;1.57;;;20.20;65.90;;;;;;4979519;28;20545;-78
2022/11/23 07:06:32;;;;;;;3.23;1.90;;;20.20;65.70;;;;;;4993987;28;20510;-79
2022/11/23 07:09:06;;;;;;;2.50;2.13;;;20.20;65.50;;;;;;4991657;28;20473;-79
2022/11/23 07:11:48;;;;;;;4.00;1.60;;;20.20;65.50;;;;;;5010203;28;20460;-75
2022/11/23 07:14:17;;;;;;;3.97;2.87;;;20.20;65.20;;;;;;4990542;28;20463;-80
2022/11/23 07:16:47;;;;;;;3.57;1.80;;;20.20;65.00;;;;;;5004778;28;20799;-76
2022/11/23 07:19:16;;;;;;;3.07;2.20;;;20.20;65.00;;;;;;4991383;28;20478;-80
2022/11/23 07:21:46;;;;;;;2.13;1.93;;;20.20;64.90;;;;;;4987657;28;20490;-78
2022/11/23 07:24:16;;;;;;;3.97;2.10;;;20.20;64.80;;;;;;4995636;28;20494;-77
2022/11/23 07:26:44;;;;;;;2.07;1.87;;;20.20;64.90;;;;;;5010184;28;20944;-69
2022/11/23 07:29:12;;;;;;;5.77;2.33;;;20.20;65.40;;;;;;4996949;28;20448;-69
2022/11/23 07:31:40;;;;;;;3.37;2.30;;;20.20;65.90;;;;;;4998015;28;20478;-69
2022/11/23 07:34:09;;;;;;;4.50;2.07;;;20.20;66.20;;;;;;5014209;28;21009;-69
2022/11/23 07:36:38;;;;;;;2.17;1.97;;;20.20;66.30;;;;;;4996800;28;20949;-69
2022/11/23 07:39:08;;;;;;;2.03;1.83;;;20.20;66.60;;;;;;5006519;28;20452;-69
2022/11/23 07:41:36;;;;;;;1.97;1.67;;;20.20;66.80;;;;;;4989620;28;20455;-69
2022/11/23 07:44:08;;;;;;;2.40;2.17;;;20.20;66.70;;;;;;4995954;28;20868;-69
2022/11/23 07:46:36;;;;;;;3.40;2.50;;;20.30;66.70;;;;;;5012537;28;20445;-69
2022/11/23 07:49:04;;;;;;;6.83;2.73;;;20.30;66.80;;;;;;5016310;28;20485;-69
2022/11/23 07:51:33;;;;;;;2.13;1.93;;;20.30;66.80;;;;;;5008134;28;20481;-68
2022/11/23 07:54:02;;;;;;;3.80;2.13;;;20.30;66.70;;;;;;5014391;28;20475;-68
2022/11/23 07:56:31;;;;;;;2.70;2.07;;;20.30;66.80;;;;;;5014550;28;21157;-69
2022/11/23 07:58:59;;;;;;;2.07;1.87;;;20.30;66.70;;;;;;5011738;28;20590;-69
2022/11/23 08:01:28;;;;;;;2.43;2.10;;;20.40;66.70;;;;;;5014060;28;20444;-68
2022/11/23 08:03:56;;;;;;;3.50;2.23;;;20.40;66.80;;;;;;5013241;28;20581;-68
2022/11/23 08:06:24;;;;;;;6.47;2.63;;;20.40;66.80;;;;;;5014491;28;20485;-68
2022/11/23 08:08:54;;;;;;;2.70;1.90;;;20.40;66.80;;;;;;5014293;28;20460;-69
2022/11/23 08:11:22;;;;;;;3.00;1.93;;;20.40;66.80;;;;;;5013588;28;20500;-69
2022/11/23 08:13:52;;;;;;;1.95;1.50;;;20.40;66.70;;;;;;5013152;28;20446;-76
2022/11/23 08:16:20;;;;;;;1.67;1.57;;;20.40;66.60;;;;;;5006300;28;20291;-83
2022/11/23 08:18:49;;;;;;;3.13;1.67;;;20.50;66.40;;;;;;5012655;28;20451;-76
2022/11/23 08:21:17;;;;;;;2.43;1.60;;;20.50;66.30;;;;;;5012072;28;20565;-82
2022/11/23 08:23:47;;;;;;;2.30;2.00;;;20.50;66.20;;;;;;5014019;28;20502;-83
2022/11/23 08:26:15;;;;;;;4.25;2.08;;;20.60;66.10;;;;;;5005994;28;20486;-73
2022/11/23 08:28:43;;;;;;;3.57;1.90;;;20.60;66.10;;;;;;5010381;28;20211;-77
2022/11/23 08:31:14;;;;;;;4.83;2.20;;;20.60;66.20;;;;;;5010878;28;21318;-77
2022/11/23 08:33:42;;;;;;;2.87;2.00;;;20.60;66.10;;;;;;5012167;28;20486;-77
2022/11/23 08:36:10;;;;;;;2.30;1.60;;;20.60;66.00;;;;;;5011873;28;20546;-77
2022/11/23 08:38:38;;;;;;;4.10;2.00;;;20.60;66.00;;;;;;5009615;28;20522;-77
2022/11/23 08:41:06;;;;;;;4.13;2.00;;;20.60;66.10;;;;;;5014493;28;20865;-76
2022/11/23 08:43:35;;;;;;;4.37;2.00;;;20.60;66.00;;;;;;5012254;28;21001;-77
2022/11/23 08:46:04;;;;;;;2.50;1.93;;;20.60;66.00;;;;;;5011336;28;20471;-77
2022/11/23 08:48:39;;;;;;;3.23;1.93;;;20.60;66.00;;;;;;5013381;28;20467;-78
2022/11/23 08:51:08;;;;;;;3.03;1.60;;;20.60;66.00;;;;;;5008208;28;20497;-78
2022/11/23 08:53:36;;;;;;;2.10;1.90;;;20.60;66.00;;;;;;5009313;28;20448;-77
2022/11/23 08:56:06;;;;;;;2.70;2.50;;;20.60;66.00;;;;;;5010264;28;20435;-75
2022/11/23 08:58:35;;;;;;;2.93;1.93;;;20.60;66.10;;;;;;5013697;28;20456;-79
2022/11/23 09:01:08;;;;;;;2.10;2.00;;;20.60;66.00;;;;;;5012319;28;20462;-79
2022/11/23 09:03:36;;;;;;;2.63;2.40;;;20.60;65.90;;;;;;5010547;28;20567;-80
2022/11/23 09:06:06;;;;;;;4.70;2.00;;;20.60;65.80;;;;;;5008579;28;20926;-79
2022/11/23 09:08:34;;;;;;;1.83;1.60;;;20.60;66.00;;;;;;5012487;28;20518;-78
2022/11/23 09:11:04;;;;;;;2.10;1.80;;;20.60;66.00;;;;;;5011261;28;20875;-79
2022/11/23 09:13:32;;;;;;;3.87;1.63;;;20.60;66.00;;;;;;5011553;28;20448;-78
2022/11/23 09:16:01;;;;;;;2.20;1.67;;;20.60;66.00;;;;;;5012782;28;20454;-77
2022/11/23 09:18:30;;;;;;;1.83;1.73;;;20.60;66.00;;;;;;5013207;28;21300;-78
2022/11/23 09:20:58;;;;;;;1.50;1.33;;;20.60;65.90;;;;;;5012240;28;20460;-80
2022/11/23 09:23:28;;;;;;;1.70;1.60;;;20.70;65.90;;;;;;5012941;28;20502;-79
2022/11/23 09:25:58;;;;;;;2.40;1.97;;;20.70;65.90;;;;;;5011234;28;20471;-79
2022/11/23 09:28:27;;;;;;;1.87;1.70;;;20.70;65.90;;;;;;5009705;28;20446;-79
2022/11/23 09:30:56;;;;;;;1.53;1.43;;;20.70;65.80;;;;;;5011865;28;20894;-79
2022/11/23 09:33:25;;;;;;;2.47;1.53;;;20.70;65.70;;;;;;5012941;28;20448;-79
2022/11/23 09:35:57;;;;;;;1.63;1.50;;;20.70;65.70;;;;;;5012054;28;20996;-78
2022/11/23 09:38:26;;;;;;;1.37;1.27;;;20.70;65.60;;;;;;5012859;28;20531;-79
2022/11/23 09:41:39;;;;;;;1.77;1.67;;;20.70;65.70;;;;;;5009986;28;20463;-74
2022/11/23 09:44:18;;;;;;;3.77;2.10;;;20.80;65.60;;;;;;5005043;28;20879;-78
2022/11/23 09:47:03;;;;;;;1.70;1.60;;;20.80;65.60;;;;;;5008161;28;20927;-78
2022/11/23 09:49:37;;;;;;;3.03;2.27;;;20.80;65.50;;;;;;5009660;28;20464;-79
2022/11/23 09:52:14;;;;;;;3.13;1.67;;;20.80;65.50;;;;;;5006625;28;20454;-77
2022/11/23 09:54:45;;;;;;;1.97;1.50;;;20.90;65.50;;;;;;5011490;28;20952;-78
2022/11/23 09:57:19;;;;;;;1.77;1.50;;;20.90;65.40;;;;;;5007828;28;20547;-70
2022/11/23 09:59:52;;;;;;;5.67;2.00;;;21.00;65.30;;;;;;5009584;28;20493;-79
2022/11/23 10:02:23;;;;;;;2.10;1.50;;;21.00;65.20;;;;;;5006961;28;20466;-77
2022/11/23 10:04:52;;;;;;;1.30;1.20;;;21.00;65.10;;;;;;5007792;28;20511;-77
2022/11/23 10:07:45;;;;;;;3.03;1.83;;;21.10;65.20;;;;;;5004067;28;20559;-75
2022/11/23 10:10:26;;;;;;;1.77;1.10;;;21.20;65.10;;;;;;5006815;28;20462;-78
2022/11/23 10:13:05;;;;;;;1.30;1.20;;;21.20;65.00;;;;;;5004176;28;20456;-78
2022/11/23 10:15:39;;;;;;;1.83;1.60;;;21.30;64.90;;;;;;5005864;28;20474;-73
2022/11/23 10:18:28;;;;;;;2.33;1.83;;;21.40;64.70;;;;;;5007425;28;20471;-77
2022/11/23 10:21:03;;;;;;;1.23;1.23;;;21.40;64.50;;;;;;5004232;28;20498;-77
2022/11/23 10:23:46;;;;;;;2.33;1.60;;;21.60;64.20;;;;;;5009699;28;20480;-77
2022/11/23 10:26:18;;;;;;;2.50;1.30;;;21.60;63.90;;;;;;5007258;28;20811;-77
2022/11/23 10:28:47;;;;;;;3.67;1.70;;;21.80;63.80;;;;;;5008595;28;20951;-75
2022/11/23 10:31:17;;;;;;;2.50;1.70;;;21.90;63.30;;;;;;5008571;28;20448;-77
2022/11/23 10:33:54;;;;;;;2.00;1.40;;;22.00;63.20;;;;;;5008226;28;20845;-77
2022/11/23 10:36:22;;;;;;;1.73;1.57;;;22.20;63.10;;;;;;5005988;28;21016;-76
2022/11/23 10:38:54;;;;;;;1.33;1.17;;;22.30;62.80;;;;;;5010048;28;20445;-76
2022/11/23 10:41:22;;;;;;;2.30;1.53;;;22.40;62.30;;;;;;5006148;28;20544;-77
2022/11/23 10:43:58;;;;;;;1.57;1.47;;;22.50;62.10;;;;;;5006306;28;20976;-78
2022/11/23 10:46:31;;;;;;;1.20;1.10;;;22.70;61.50;;;;;;5003826;28;20799;-77
2022/11/23 10:49:15;;;;;;;2.30;1.40;;;22.80;61.30;;;;;;5003323;28;20491;-75
2022/11/23 10:51:54;;;;;;;2.37;1.60;;;22.80;61.10;;;;;;5004039;28;20451;-78
2022/11/23 10:54:32;;;;;;;1.90;1.60;;;22.90;60.90;;;;;;5008815;28;20544;-76
2022/11/23 10:57:19;;;;;;;1.60;1.50;;;22.90;61.00;;;;;;5015347;28;20478;-77
2022/11/23 10:59:58;;;;;;;2.27;1.50;;;23.00;60.80;;;;;;5004590;28;20888;-77
2022/11/23 11:02:27;;;;;;;2.90;1.40;;;23.00;60.60;;;;;;5006913;28;20460;-76
2022/11/23 11:05:21;;;;;;;1.60;1.50;;;23.10;60.60;;;;;;5003143;28;20511;-73
2022/11/23 11:08:15;;;;;;;1.90;1.60;;;23.10;60.50;;;;;;5002835;28;20458;-74
2022/11/23 11:10:48;;;;;;;2.30;1.50;;;23.20;60.40;;;;;;5001587;28;20565;-79
2022/11/23 11:13:23;;;;;;;1.60;1.40;;;23.20;60.40;;;;;;5005270;28;20548;-79
2022/11/23 11:15:55;;;;;;;1.47;1.30;;;23.20;60.40;;;;;;5008256;28;20451;-78
2022/11/23 11:18:27;;;;;;;2.50;1.67;;;23.20;60.10;;;;;;5006472;28;21243;-79
2022/11/23 11:20:59;;;;;;;1.63;1.30;;;23.20;60.30;;;;;;5007462;28;20541;-80
2022/11/23 11:23:30;;;;;;;1.93;1.50;;;23.20;60.20;;;;;;5003772;28;20493;-79
2022/11/23 11:26:19;;;;;;;1.60;1.40;;;23.20;60.30;;;;;;5003459;28;20452;-79
2022/11/23 11:28:50;;;;;;;1.30;1.30;;;23.20;60.10;;;;;;5007162;28;20459;-80
2022/11/23 11:31:46;;;;;;;2.00;1.80;;;23.30;60.00;;;;;;5003091;28;20454;-79
2022/11/23 11:34:23;;;;;;;1.40;1.30;;;23.30;60.00;;;;;;5004844;28;20453;-79
2022/11/23 11:36:58;;;;;;;1.63;1.53;;;23.30;59.80;;;;;;5003582;28;21223;-79
2022/11/23 11:39:33;;;;;;;3.57;1.90;;;23.40;59.70;;;;;;5006395;28;20829;-79
2022/11/23 11:42:05;;;;;;;3.93;2.00;;;23.40;59.60;;;;;;4999836;28;20443;-78
2022/11/23 11:44:40;;;;;;;5.50;2.70;;;23.40;59.70;;;;;;5003062;28;20485;-80
2022/11/23 11:47:21;;;;;;;3.90;2.93;;;23.50;59.60;;;;;;5002793;28;20492;-78
2022/11/23 11:49:54;;;;;;;5.23;2.53;;;23.50;59.50;;;;;;5005996;28;20489;-76
2022/11/23 11:52:25;;;;;;;5.80;3.20;;;23.50;59.60;;;;;;5002335;28;20457;-79
2022/11/23 11:55:02;;;;;;;3.90;2.83;;;23.50;59.50;;;;;;5009037;28;20945;-72
2022/11/23 11:57:35;;;;;;;4.80;3.57;;;23.60;59.40;;;;;;5013620;28;20961;-80
2022/11/23 12:00:10;;;;;;;4.30;3.13;;;23.60;59.40;;;;;;5013955;28;20510;-79
2022/11/23 12:02:49;;;;;;;3.93;2.60;;;23.60;59.30;;;;;;5014179;28;20451;-79
2022/11/23 12:05:24;;;;;;;5.23;3.03;;;23.60;59.40;;;;;;5012941;28;20926;-80
2022/11/23 12:08:01;;;;;;;4.10;2.53;;;23.60;59.30;;;;;;5015410;28;20449;-80
2022/11/23 12:10:36;;;;;;;4.63;2.80;;;23.70;59.30;;;;;;5007850;28;20489;-78
2022/11/23 12:13:05;;;;;;;4.20;2.90;;;23.70;59.20;;;;;;5002565;28;20965;-79
2022/11/23 12:15:38;;;;;;;5.47;3.30;;;23.70;59.30;;;;;;5002370;28;20454;-79
2022/11/23 12:18:34;;;;;;;5.10;3.30;;;23.60;59.40;;;;;;5011977;28;20448;-78
2022/11/23 12:21:04;;;;;;;3.10;2.43;;;23.70;59.40;;;;;;5007390;28;20866;-74
2022/11/23 12:23:49;;;;;;;3.20;2.67;;;23.70;59.30;;;;;;5008178;28;20497;-78
2022/11/23 12:26:24;;;;;;;4.60;2.60;;;23.70;59.30;;;;;;5013081;28;20451;-79
2022/11/23 12:29:18;;;;;;;2.70;2.50;;;23.70;59.30;;;;;;5006043;28;20552;-76
2022/11/23 12:31:49;;;;;;;3.43;2.60;;;23.70;59.30;;;;;;5006732;28;20454;-80
2022/11/23 12:34:41;;;;;;;3.23;2.93;;;23.70;59.20;;;;;;5009435;28;20449;-79
2022/11/23 12:37:29;;;;;;;6.77;2.80;;;23.70;59.30;;;;;;5002453;28;20502;-74
2022/11/23 12:40:16;;;;;;;6.77;3.20;;;23.70;59.20;;;;;;5010509;28;20541;-77
2022/11/23 12:42:48;;;;;;;6.40;2.90;;;23.70;59.30;;;;;;5011237;28;20450;-74
2022/11/23 12:45:30;;;;;;;4.80;3.17;;;23.80;59.40;;;;;;5013524;28;20531;-76
2022/11/23 12:48:14;;;;;;;3.57;1.93;;;23.80;59.30;;;;;;5008026;28;20511;-77
2022/11/23 12:50:53;;;;;;;6.27;3.00;;;23.80;59.40;;;;;;5009167;28;20535;-77
2022/11/23 12:53:33;;;;;;;8.60;2.93;;;23.80;59.20;;;;;;5013271;28;20450;-79
2022/11/23 12:56:12;;;;;;;4.90;2.40;;;23.90;59.30;;;;;;5013759;28;20461;-77
2022/11/23 12:58:42;;;;;;;4.07;2.17;;;23.90;59.30;;;;;;5005498;28;20454;-75
2022/11/23 13:01:14;;;;;;;4.43;2.53;;;23.90;59.20;;;;;;5009055;28;20465;-77
2022/11/23 13:04:09;;;;;;;4.37;2.73;;;24.00;59.30;;;;;;5012077;28;20443;-76
2022/11/23 13:07:06;;;;;;;3.27;2.10;;;24.00;59.20;;;;;;4999253;28;20471;-79
2022/11/23 13:10:06;;;;;;;6.70;2.83;;;24.00;59.30;;;;;;5007157;28;20474;-73
2022/11/23 13:12:51;;;;;;;3.20;2.07;;;24.00;59.50;;;;;;5005285;28;20465;-78
2022/11/23 13:15:37;;;;;;;6.10;2.50;;;24.00;59.40;;;;;;5013242;28;20538;-76